sensor_id;sensor_type;location;lat;lon;timestamp;pressure;altitude;pressure_sealevel;temperature;humidity
2036;BME280;23642;42.658;23.350;2023-03-22T00:01:23;43583.94;;;-146.31;100.00
2036;BME280;23642;42.658;23.350;2023-03-22T00:03:56;43522.19;;;-146.31;100.00
2036;BME280;23642;42.658;23.350;2023-03-22T00:06:25;43534.53;;;-146.31;100.00
2036;BME280;23642;42.658;23.350;2023-03-22T00:08:52;43435.75;;;-146.31;100.00
2036;BME280;23642;42.658;23.350;2023-03-22T00:11:20;43349.31;;;-146.31;100.00
2036;BME280;23642;42.658;23.350;2023-03-22T00:13:48;43289.63;;;-146.31;100.00
2036;BME280;23642;42.658;23.350;2023-03-22T00:16:17;43359.59;;;-146.31;100.00
2036;BME280;23642;42.658;23.350;2023-03-22T00:18:44;43365.78;;;-146.31;100.00
2036;BME280;23642;42.658;23.350;2023-03-22T00:21:12;43376.06;;;-146.31;100.00
2036;BME280;23642;42.658;23.350;2023-03-22T00:23:41;43293.75;;;-146.31;100.00
2036;BME280;23642;42.658;23.350;2023-03-22T00:26:09;43254.66;;;-146.31;100.00
2036;BME280;23642;42.658;23.350;2023-03-22T00:28:36;43320.50;;;-146.31;100.00
2036;BME280;23642;42.658;23.350;2023-03-22T00:31:03;43324.63;;;-146.31;100.00
2036;BME280;23642;42.658;23.350;2023-03-22T00:33:31;43232.00;;;-146.31;100.00
2036;BME280;23642;42.658;23.350;2023-03-22T00:35:59;43194.97;;;-146.31;100.00
2036;BME280;23642;42.658;23.350;2023-03-22T00:38:26;43116.75;;;-146.31;100.00
2036;BME280;23642;42.658;23.350;2023-03-22T00:41:07;43139.41;;;-146.31;100.00
2036;BME280;23642;42.658;23.350;2023-03-22T00:43:34;43071.50;;;-146.31;100.00
2036;BME280;23642;42.658;23.350;2023-03-22T00:46:01;43011.81;;;-146.31;100.00
2036;BME280;23642;42.658;23.350;2023-03-22T00:48:28;42966.53;;;-146.31;100.00
2036;BME280;23642;42.658;23.350;2023-03-22T00:50:54;42960.38;;;-146.31;100.00
2036;BME280;23642;42.658;23.350;2023-03-22T00:53:21;42956.25;;;-146.31;100.00
2036;BME280;23642;42.658;23.350;2023-03-22T00:55:48;42917.16;;;-146.31;100.00
2036;BME280;23642;42.658;23.350;2023-03-22T00:58:19;42997.41;;;-146.31;100.00
2036;BME280;23642;42.658;23.350;2023-03-22T01:00:46;43036.50;;;-146.31;100.00
2036;BME280;23642;42.658;23.350;2023-03-22T01:03:13;43108.53;;;-146.31;100.00
2036;BME280;23642;42.658;23.350;2023-03-22T01:05:40;43149.69;;;-146.31;100.00
2036;BME280;23642;42.658;23.350;2023-03-22T01:08:07;43188.78;;;-146.31;100.00
2036;BME280;23642;42.658;23.350;2023-03-22T01:10:33;43291.69;;;-146.31;100.00
2036;BME280;23642;42.658;23.350;2023-03-22T01:13:13;43297.88;;;-146.31;100.00
2036;BME280;23642;42.658;23.350;2023-03-22T01:15:41;43293.75;;;-146.31;100.00
2036;BME280;23642;42.658;23.350;2023-03-22T01:18:08;43299.94;;;-146.31;100.00
2036;BME280;23642;42.658;23.350;2023-03-22T01:20:35;43211.44;;;-146.31;100.00
2036;BME280;23642;42.658;23.350;2023-03-22T01:23:02;43155.88;;;-146.31;100.00
2036;BME280;23642;42.658;23.350;2023-03-22T01:25:29;43114.72;;;-146.31;100.00
2036;BME280;23642;42.658;23.350;2023-03-22T01:27:56;43079.72;;;-146.31;100.00
2036;BME280;23642;42.658;23.350;2023-03-22T01:30:23;43032.38;;;-146.31;100.00
2036;BME280;23642;42.658;23.350;2023-03-22T01:32:51;42954.19;;;-146.31;100.00
2036;BME280;23642;42.658;23.350;2023-03-22T01:35:18;42886.28;;;-146.31;100.00
2036;BME280;23642;42.658;23.350;2023-03-22T01:37:45;42795.75;;;-146.31;100.00
2036;BME280;23642;42.658;23.350;2023-03-22T01:40:13;42746.34;;;-146.31;100.00
2036;BME280;23642;42.658;23.350;2023-03-22T01:42:40;42701.09;;;-146.31;100.00
2036;BME280;23642;42.658;23.350;2023-03-22T01:45:32;42620.84;;;-146.31;100.00
2036;BME280;23642;42.658;23.350;2023-03-22T01:48:05;42600.25;;;-146.31;100.00
2036;BME280;23642;42.658;23.350;2023-03-22T01:50:34;42649.66;;;-146.31;100.00
2036;BME280;23642;42.658;23.350;2023-03-22T01:53:07;42633.19;;;-146.31;100.00
2036;BME280;23642;42.658;23.350;2023-03-22T01:55:39;42649.66;;;-146.31;100.00
2036;BME280;23642;42.658;23.350;2023-03-22T01:58:06;42639.38;;;-146.31;100.00
2036;BME280;23642;42.658;23.350;2023-03-22T02:00:33;42579.69;;;-146.31;100.00
2036;BME280;23642;42.658;23.350;2023-03-22T02:03:01;42606.44;;;-146.31;100.00
2036;BME280;23642;42.658;23.350;2023-03-22T02:05:28;42629.06;;;-146.31;100.00
2036;BME280;23642;42.658;23.350;2023-03-22T02:07:56;42624.97;;;-146.31;100.00
2036;BME280;23642;42.658;23.350;2023-03-22T02:10:25;42604.38;;;-146.31;100.00
2036;BME280;23642;42.658;23.350;2023-03-22T02:13:15;42575.56;;;-146.31;100.00
2036;BME280;23642;42.658;23.350;2023-03-22T02:15:48;42540.59;;;-146.31;100.00
2036;BME280;23642;42.658;23.350;2023-03-22T02:18:27;42509.72;;;-146.31;100.00
2036;BME280;23642;42.658;23.350;2023-03-22T02:21:24;42493.28;;;-146.31;100.00
2036;BME280;23642;42.658;23.350;2023-03-22T02:24:27;42460.34;;;-146.31;100.00
2036;BME280;23642;42.658;23.350;2023-03-22T02:27:24;42495.34;;;-146.31;100.00
2036;BME280;23642;42.658;23.350;2023-03-22T02:30:14;42480.94;;;-146.31;100.00
2036;BME280;23642;42.658;23.350;2023-03-22T02:33:22;42478.88;;;-146.31;100.00
2036;BME280;23642;42.658;23.350;2023-03-22T02:36:04;42530.31;;;-146.31;100.00
2036;BME280;23642;42.658;23.350;2023-03-22T02:39:03;42550.88;;;-146.31;100.00
2036;BME280;23642;42.658;23.350;2023-03-22T02:41:51;42569.41;;;-146.31;100.00
2036;BME280;23642;42.658;23.350;2023-03-22T02:44:25;42598.22;;;-146.31;100.00
2036;BME280;23642;42.658;23.350;2023-03-22T02:46:59;42526.19;;;-146.31;100.00
2036;BME280;23642;42.658;23.350;2023-03-22T02:49:34;42592.03;;;-146.31;100.00
2036;BME280;23642;42.658;23.350;2023-03-22T02:52:10;42587.91;;;-146.31;100.00
2036;BME280;23642;42.658;23.350;2023-03-22T02:54:47;42653.75;;;-146.31;100.00
2036;BME280;23642;42.658;23.350;2023-03-22T02:57:21;42692.84;;;-146.31;100.00
2036;BME280;23642;42.658;23.350;2023-03-22T02:59:52;42719.59;;;-146.31;100.00
2036;BME280;23642;42.658;23.350;2023-03-22T03:02:20;42797.81;;;-146.31;100.00
2036;BME280;23642;42.658;23.350;2023-03-22T03:04:49;42818.38;;;-146.31;100.00
2036;BME280;23642;42.658;23.350;2023-03-22T03:07:20;42822.50;;;-146.31;100.00
2036;BME280;23642;42.658;23.350;2023-03-22T03:09:51;42841.00;;;-146.31;100.00
2036;BME280;23642;42.658;23.350;2023-03-22T03:12:20;42814.25;;;-146.31;100.00
2036;BME280;23642;42.658;23.350;2023-03-22T03:14:49;42793.69;;;-146.31;100.00
2036;BME280;23642;42.658;23.350;2023-03-22T03:17:23;42785.47;;;-146.31;100.00
2036;BME280;23642;42.658;23.350;2023-03-22T03:20:03;42843.06;;;-146.31;100.00
2036;BME280;23642;42.658;23.350;2023-03-22T03:22:43;42915.09;;;-146.31;100.00
2036;BME280;23642;42.658;23.350;2023-03-22T03:25:20;42937.72;;;-146.31;100.00
2036;BME280;23642;42.658;23.350;2023-03-22T03:27:57;42950.06;;;-146.31;100.00
2036;BME280;23642;42.658;23.350;2023-03-22T03:30:31;42958.31;;;-146.31;100.00
2036;BME280;23642;42.658;23.350;2023-03-22T03:33:03;42999.47;;;-146.31;100.00
2036;BME280;23642;42.658;23.350;2023-03-22T03:35:32;43159.97;;;-146.31;100.00
2036;BME280;23642;42.658;23.350;2023-03-22T03:38:05;43380.19;;;-146.31;100.00
2036;BME280;23642;42.658;23.350;2023-03-22T03:40:38;43604.53;;;-146.31;100.00
2036;BME280;23642;42.658;23.350;2023-03-22T03:43:07;43849.47;;;-146.31;100.00
2036;BME280;23642;42.658;23.350;2023-03-22T03:45:35;44022.38;;;-146.31;100.00
2036;BME280;23642;42.658;23.350;2023-03-22T03:48:05;44042.94;;;-146.31;100.00
2036;BME280;23642;42.658;23.350;2023-03-22T03:50:33;44110.88;;;-146.31;100.00
2036;BME280;23642;42.658;23.350;2023-03-22T03:53:00;44135.59;;;-146.31;100.00
2036;BME280;23642;42.658;23.350;2023-03-22T03:55:27;44180.88;;;-146.31;100.00
2036;BME280;23642;42.658;23.350;2023-03-22T03:57:56;44215.88;;;-146.31;100.00
2036;BME280;23642;42.658;23.350;2023-03-22T04:00:23;44292.03;;;-146.31;100.00
2036;BME280;23642;42.658;23.350;2023-03-22T04:02:50;44176.75;;;-146.31;100.00
2036;BME280;23642;42.658;23.350;2023-03-22T04:05:17;44242.63;;;-146.31;100.00
2036;BME280;23642;42.658;23.350;2023-03-22T04:07:43;44312.63;;;-146.31;100.00
2036;BME280;23642;42.658;23.350;2023-03-22T04:10:12;44339.38;;;-146.31;100.00
2036;BME280;23642;42.658;23.350;2023-03-22T04:12:39;44316.75;;;-146.31;100.00
2036;BME280;23642;42.658;23.350;2023-03-22T04:15:09;44259.09;;;-146.31;100.00
2036;BME280;23642;42.658;23.350;2023-03-22T04:17:36;44205.56;;;-146.31;100.00
2036;BME280;23642;42.658;23.350;2023-03-22T04:20:05;44162.34;;;-146.31;100.00
2036;BME280;23642;42.658;23.350;2023-03-22T04:22:34;44069.72;;;-146.31;100.00
2036;BME280;23642;42.658;23.350;2023-03-22T04:25:03;44094.41;;;-146.31;100.00
2036;BME280;23642;42.658;23.350;2023-03-22T04:27:31;44053.25;;;-146.31;100.00
2036;BME280;23642;42.658;23.350;2023-03-22T04:29:58;43983.25;;;-146.31;100.00
2036;BME280;23642;42.658;23.350;2023-03-22T04:32:26;43962.69;;;-146.31;100.00
2036;BME280;23642;42.658;23.350;2023-03-22T04:34:53;43950.31;;;-146.31;100.00
2036;BME280;23642;42.658;23.350;2023-03-22T04:37:21;43946.22;;;-146.31;100.00
2036;BME280;23642;42.658;23.350;2023-03-22T04:39:51;43950.31;;;-146.31;100.00
2036;BME280;23642;42.658;23.350;2023-03-22T04:42:18;43874.16;;;-146.31;100.00
2036;BME280;23642;42.658;23.350;2023-03-22T04:44:45;43828.88;;;-146.31;100.00
2036;BME280;23642;42.658;23.350;2023-03-22T04:47:12;43795.94;;;-146.31;100.00
2036;BME280;23642;42.658;23.350;2023-03-22T04:49:40;43878.28;;;-146.31;100.00
2036;BME280;23642;42.658;23.350;2023-03-22T04:52:09;43818.59;;;-146.31;100.00
2036;BME280;23642;42.658;23.350;2023-03-22T04:54:36;43830.94;;;-146.31;100.00
2036;BME280;23642;42.658;23.350;2023-03-22T04:57:03;43884.47;;;-146.31;100.00
2036;BME280;23642;42.658;23.350;2023-03-22T04:59:30;43923.56;;;-146.31;100.00
2036;BME280;23642;42.658;23.350;2023-03-22T05:01:57;43954.44;;;-146.31;100.00
2036;BME280;23642;42.658;23.350;2023-03-22T05:04:25;43999.72;;;-146.31;100.00
2036;BME280;23642;42.658;23.350;2023-03-22T05:06:57;44053.25;;;-146.31;100.00
2036;BME280;23642;42.658;23.350;2023-03-22T05:09:23;44047.06;;;-146.31;100.00
2036;BME280;23642;42.658;23.350;2023-03-22T05:11:50;44045.00;;;-146.31;100.00
2036;BME280;23642;42.658;23.350;2023-03-22T05:14:17;44055.31;;;-146.31;100.00
2036;BME280;23642;42.658;23.350;2023-03-22T05:16:43;44207.63;;;-146.31;100.00
2036;BME280;23642;42.658;23.350;2023-03-22T05:19:13;44193.22;;;-146.31;100.00
2036;BME280;23642;42.658;23.350;2023-03-22T05:21:42;44176.75;;;-146.31;100.00
2036;BME280;23642;42.658;23.350;2023-03-22T05:24:10;44203.53;;;-146.31;100.00
2036;BME280;23642;42.658;23.350;2023-03-22T05:26:37;44300.28;;;-146.31;100.00
2036;BME280;23642;42.658;23.350;2023-03-22T05:29:06;44351.75;;;-146.31;100.00
2036;BME280;23642;42.658;23.350;2023-03-22T05:31:34;44362.03;;;-146.31;100.00
2036;BME280;23642;42.658;23.350;2023-03-22T05:34:02;44314.69;;;-146.31;100.00
2036;BME280;23642;42.658;23.350;2023-03-22T05:36:29;44298.22;;;-146.31;100.00
2036;BME280;23642;42.658;23.350;2023-03-22T05:38:56;44343.50;;;-146.31;100.00
2036;BME280;23642;42.658;23.350;2023-03-22T05:41:24;44370.28;;;-146.31;100.00
2036;BME280;23642;42.658;23.350;2023-03-22T05:43:51;44510.25;;;-146.31;100.00
2036;BME280;23642;42.658;23.350;2023-03-22T05:46:18;44563.78;;;-146.31;100.00
2036;BME280;23642;42.658;23.350;2023-03-22T05:48:45;44592.63;;;-146.31;100.00
2036;BME280;23642;42.658;23.350;2023-03-22T05:51:13;44672.91;;;-146.31;100.00
2036;BME280;23642;42.658;23.350;2023-03-22T05:53:42;44792.31;;;-146.31;100.00
2036;BME280;23642;42.658;23.350;2023-03-22T05:56:09;44821.16;;;-146.31;100.00
2036;BME280;23642;42.658;23.350;2023-03-22T05:58:37;44860.28;;;-146.31;100.00
2036;BME280;23642;42.658;23.350;2023-03-22T06:01:06;44928.22;;;-146.31;100.00
2036;BME280;23642;42.658;23.350;2023-03-22T06:03:33;45000.28;;;-146.31;100.00
2036;BME280;23642;42.658;23.350;2023-03-22T06:06:00;45033.22;;;-146.31;100.00
2036;BME280;23642;42.658;23.350;2023-03-22T06:08:26;45117.66;;;-146.31;100.00
2036;BME280;23642;42.658;23.350;2023-03-22T06:10:53;45162.97;;;-146.31;100.00
2036;BME280;23642;42.658;23.350;2023-03-22T06:13:20;45144.44;;;-146.31;100.00
2036;BME280;23642;42.658;23.350;2023-03-22T06:15:48;45109.41;;;-146.31;100.00
2036;BME280;23642;42.658;23.350;2023-03-22T06:18:15;45123.84;;;-146.31;100.00
2036;BME280;23642;42.658;23.350;2023-03-22T06:20:42;45088.81;;;-146.31;100.00
2036;BME280;23642;42.658;23.350;2023-03-22T06:23:09;45051.75;;;-146.31;100.00
2036;BME280;23642;42.658;23.350;2023-03-22T06:25:36;45057.94;;;-146.31;100.00
2036;BME280;23642;42.658;23.350;2023-03-22T06:28:03;44998.22;;;-146.31;100.00
2036;BME280;23642;42.658;23.350;2023-03-22T06:30:30;45053.81;;;-146.31;100.00
2036;BME280;23642;42.658;23.350;2023-03-22T06:32:59;45072.34;;;-146.31;100.00
2036;BME280;23642;42.658;23.350;2023-03-22T06:35:29;45039.41;;;-146.31;100.00
2036;BME280;23642;42.658;23.350;2023-03-22T06:38:01;45123.84;;;-146.31;100.00
2036;BME280;23642;42.658;23.350;2023-03-22T06:40:32;45136.19;;;-146.31;100.00
2036;BME280;23642;42.658;23.350;2023-03-22T06:43:02;45235.03;;;-146.31;100.00
2036;BME280;23642;42.658;23.350;2023-03-22T06:45:30;45288.56;;;-146.31;100.00
2036;BME280;23642;42.658;23.350;2023-03-22T06:48:08;45395.66;;;-146.31;100.00
2036;BME280;23642;42.658;23.350;2023-03-22T06:50:38;45624.25;;;-146.31;99.43
2036;BME280;23642;42.658;23.350;2023-03-22T06:53:07;45801.34;;;-146.31;97.94
2036;BME280;23642;42.658;23.350;2023-03-22T06:55:34;45914.63;;;-146.31;97.81
2036;BME280;23642;42.658;23.350;2023-03-22T06:58:01;46219.47;;;-146.31;95.67
2036;BME280;23642;42.658;23.350;2023-03-22T07:00:31;46369.84;;;-146.31;95.83
2036;BME280;23642;42.658;23.350;2023-03-22T07:03:01;46476.97;;;-146.31;95.49
2036;BME280;23642;42.658;23.350;2023-03-22T07:05:28;46511.97;;;-146.31;96.12
2036;BME280;23642;42.658;23.350;2023-03-22T07:07:55;46608.81;;;-146.31;95.57
2036;BME280;23642;42.658;23.350;2023-03-22T07:10:22;46629.41;;;-146.31;95.94
2036;BME280;23642;42.658;23.350;2023-03-22T07:12:49;46643.81;;;-146.31;96.20
2036;BME280;23642;42.658;23.350;2023-03-22T07:15:30;46713.88;;;-146.31;95.70
2036;BME280;23642;42.658;23.350;2023-03-22T07:18:00;46763.31;;;-146.31;95.73
2036;BME280;23642;42.658;23.350;2023-03-22T07:20:29;46726.22;;;-146.31;96.48
2036;BME280;23642;42.658;23.350;2023-03-22T07:23:08;46695.31;;;-146.31;96.26
2036;BME280;23642;42.658;23.350;2023-03-22T07:25:39;46792.16;;;-146.31;95.84
2036;BME280;23642;42.658;23.350;2023-03-22T07:28:09;46876.63;;;-146.31;94.39
2036;BME280;23642;42.658;23.350;2023-03-22T07:30:37;47014.66;;;-146.31;94.60
2036;BME280;23642;42.658;23.350;2023-03-22T07:33:07;47016.72;;;-146.31;94.94
2036;BME280;23642;42.658;23.350;2023-03-22T07:35:35;46973.44;;;-146.31;95.85
2036;BME280;23642;42.658;23.350;2023-03-22T07:38:06;46891.03;;;-146.31;96.49
2036;BME280;23642;42.658;23.350;2023-03-22T07:40:35;46979.63;;;-146.31;95.77
2036;BME280;23642;42.658;23.350;2023-03-22T07:43:06;47016.72;;;-146.31;94.74
2036;BME280;23642;42.658;23.350;2023-03-22T07:45:36;46998.19;;;-146.31;95.28
2036;BME280;23642;42.658;23.350;2023-03-22T07:48:13;46944.59;;;-146.31;96.34
2036;BME280;23642;42.658;23.350;2023-03-22T07:50:40;46967.28;;;-146.31;96.07
2036;BME280;23642;42.658;23.350;2023-03-22T07:53:10;47031.13;;;-146.31;95.77
2036;BME280;23642;42.658;23.350;2023-03-22T07:55:42;47006.41;;;-146.31;95.69
2036;BME280;23642;42.658;23.350;2023-03-22T07:58:09;46996.13;;;-146.31;96.50
2036;BME280;23642;42.658;23.350;2023-03-22T08:00:44;46897.22;;;-146.31;96.95
2036;BME280;23642;42.658;23.350;2023-03-22T08:03:15;46829.25;;;-146.31;97.12
2036;BME280;23642;42.658;23.350;2023-03-22T08:05:45;46858.06;;;-146.31;97.24
2036;BME280;23642;42.658;23.350;2023-03-22T08:08:21;46870.44;;;-146.31;97.06
2036;BME280;23642;42.658;23.350;2023-03-22T08:10:51;46911.66;;;-146.31;96.56
2036;BME280;23642;42.658;23.350;2023-03-22T08:13:18;46936.38;;;-146.31;95.97
2036;BME280;23642;42.658;23.350;2023-03-22T08:15:44;47014.66;;;-146.31;95.54
2036;BME280;23642;42.658;23.350;2023-03-22T08:18:11;46919.88;;;-146.31;96.71
2036;BME280;23642;42.658;23.350;2023-03-22T08:20:39;46952.84;;;-146.31;96.61
2036;BME280;23642;42.658;23.350;2023-03-22T08:23:09;46961.09;;;-146.31;96.51
2036;BME280;23642;42.658;23.350;2023-03-22T08:25:40;46981.69;;;-146.31;96.46
2036;BME280;23642;42.658;23.350;2023-03-22T08:28:07;46868.38;;;-146.31;96.99
2036;BME280;23642;42.658;23.350;2023-03-22T08:30:34;46911.66;;;-146.31;96.96
2036;BME280;23642;42.658;23.350;2023-03-22T08:33:01;46901.34;;;-146.31;96.71
2036;BME280;23642;42.658;23.350;2023-03-22T08:35:28;46973.44;;;-146.31;96.15
2036;BME280;23642;42.658;23.350;2023-03-22T08:37:56;46971.41;;;-146.31;96.43
2036;BME280;23642;42.658;23.350;2023-03-22T08:40:28;47020.84;;;-146.31;95.97
2036;BME280;23642;42.658;23.350;2023-03-22T08:42:55;47043.50;;;-146.31;95.49
2036;BME280;23642;42.658;23.350;2023-03-22T08:45:22;47115.63;;;-146.31;95.39
2036;BME280;23642;42.658;23.350;2023-03-22T08:47:50;47076.47;;;-146.31;95.34
2036;BME280;23642;42.658;23.350;2023-03-22T08:50:16;47158.88;;;-146.31;94.91
2036;BME280;23642;42.658;23.350;2023-03-22T08:52:43;47224.81;;;-146.31;94.88
2036;BME280;23642;42.658;23.350;2023-03-22T08:55:12;47245.41;;;-146.31;94.59
2036;BME280;23642;42.658;23.350;2023-03-22T08:57:42;47266.03;;;-146.31;94.44
2036;BME280;23642;42.658;23.350;2023-03-22T09:00:15;47284.56;;;-146.31;94.19
2036;BME280;23642;42.658;23.350;2023-03-22T09:02:45;47278.38;;;-146.31;93.71
2036;BME280;23642;42.658;23.350;2023-03-22T09:05:16;47342.25;;;-146.31;94.18
2036;BME280;23642;42.658;23.350;2023-03-22T09:07:43;47274.25;;;-146.31;94.34
2036;BME280;23642;42.658;23.350;2023-03-22T09:10:11;47348.44;;;-146.31;94.41
2036;BME280;23642;42.658;23.350;2023-03-22T09:12:41;47317.53;;;-146.31;95.01
2036;BME280;23642;42.658;23.350;2023-03-22T09:15:10;47278.38;;;-146.31;95.36
2036;BME280;23642;42.658;23.350;2023-03-22T09:17:36;47348.44;;;-146.31;94.19
2036;BME280;23642;42.658;23.350;2023-03-22T09:20:07;47294.88;;;-146.31;94.91
2036;BME280;23642;42.658;23.350;2023-03-22T09:22:33;47350.50;;;-146.31;94.16
2036;BME280;23642;42.658;23.350;2023-03-22T09:25:00;47350.50;;;-146.31;94.39
2036;BME280;23642;42.658;23.350;2023-03-22T09:27:29;47414.38;;;-146.31;93.88
2036;BME280;23642;42.658;23.350;2023-03-22T09:29:58;47410.25;;;-146.31;93.88
2036;BME280;23642;42.658;23.350;2023-03-22T09:32:25;47393.78;;;-146.31;94.51
2036;BME280;23642;42.658;23.350;2023-03-22T09:34:52;47323.72;;;-146.31;95.91
2036;BME280;23642;42.658;23.350;2023-03-22T09:37:20;47292.81;;;-146.31;95.84
2036;BME280;23642;42.658;23.350;2023-03-22T09:39:47;47228.94;;;-146.31;96.56
2036;BME280;23642;42.658;23.350;2023-03-22T09:42:27;47239.25;;;-146.31;95.60
2036;BME280;23642;42.658;23.350;2023-03-22T09:44:57;47288.69;;;-146.31;95.37
2036;BME280;23642;42.658;23.350;2023-03-22T09:47:30;47303.13;;;-146.31;95.65
2036;BME280;23642;42.658;23.350;2023-03-22T09:50:05;47303.13;;;-146.31;95.29
2036;BME280;23642;42.658;23.350;2023-03-22T09:52:32;47430.88;;;-146.31;93.94
2036;BME280;23642;42.658;23.350;2023-03-22T09:54:59;47467.97;;;-146.31;93.63
2036;BME280;23642;42.658;23.350;2023-03-22T09:57:31;47488.56;;;-146.31;94.20
2036;BME280;23642;42.658;23.350;2023-03-22T10:00:10;47682.25;;;-146.31;92.58
2036;BME280;23642;42.658;23.350;2023-03-22T10:02:51;47614.25;;;-146.31;93.26
2036;BME280;23642;42.658;23.350;2023-03-22T10:05:27;47641.03;;;-146.31;92.25
2036;BME280;23642;42.658;23.350;2023-03-22T10:08:18;47733.78;;;-146.31;91.26
2036;BME280;23642;42.658;23.350;2023-03-22T10:10:49;47797.66;;;-146.31;90.16
2036;BME280;23642;42.658;23.350;2023-03-22T10:13:26;47954.28;;;-146.31;89.21
2036;BME280;23642;42.658;23.350;2023-03-22T10:15:58;47999.63;;;-146.31;89.29
2036;BME280;23642;42.658;23.350;2023-03-22T10:18:32;48012.00;;;-146.31;90.00
2036;BME280;23642;42.658;23.350;2023-03-22T10:21:03;47991.38;;;-146.31;90.97
2036;BME280;23642;42.658;23.350;2023-03-22T10:23:35;47995.50;;;-146.31;91.44
2036;BME280;23642;42.658;23.350;2023-03-22T10:26:10;48040.84;;;-146.31;90.88
2036;BME280;23642;42.658;23.350;2023-03-22T10:28:43;48106.78;;;-146.31;90.64
2036;BME280;23642;42.658;23.350;2023-03-22T10:31:16;48024.34;;;-146.31;91.95
2036;BME280;23642;42.658;23.350;2023-03-22T10:33:50;48042.91;;;-146.31;91.46
2036;BME280;23642;42.658;23.350;2023-03-22T10:36:22;48009.94;;;-146.31;91.55
2036;BME280;23642;42.658;23.350;2023-03-22T10:38:53;48053.22;;;-146.31;91.11
2036;BME280;23642;42.658;23.350;2023-03-22T10:41:24;48082.06;;;-146.31;89.85
2036;BME280;23642;42.658;23.350;2023-03-22T10:43:55;48143.91;;;-146.31;89.68
2036;BME280;23642;42.658;23.350;2023-03-22T10:46:27;48294.34;;;-146.31;88.75
2036;BME280;23642;42.658;23.350;2023-03-22T10:49:05;48327.31;;;-146.31;88.37
2036;BME280;23642;42.658;23.350;2023-03-22T10:51:35;48374.72;;;-146.31;87.16
2036;BME280;23642;42.658;23.350;2023-03-22T10:54:05;48521.06;;;-146.31;85.72
2036;BME280;23642;42.658;23.350;2023-03-22T10:56:31;48615.88;;;-146.31;85.12
2036;BME280;23642;42.658;23.350;2023-03-22T10:58:58;48580.84;;;-146.31;85.96
2036;BME280;23642;42.658;23.350;2023-03-22T11:01:29;48572.59;;;-146.31;86.35
2036;BME280;23642;42.658;23.350;2023-03-22T11:03:59;48607.66;;;-146.31;86.14
2036;BME280;23642;42.658;23.350;2023-03-22T11:06:32;48601.47;;;-146.31;85.81
2036;BME280;23642;42.658;23.350;2023-03-22T11:09:11;48733.38;;;-146.31;84.32
2036;BME280;23642;42.658;23.350;2023-03-22T11:11:49;48811.72;;;-146.31;83.93
2036;BME280;23642;42.658;23.350;2023-03-22T11:14:26;48805.53;;;-146.31;84.99
2036;BME280;23642;42.658;23.350;2023-03-22T11:16:58;48832.34;;;-146.31;85.47
2036;BME280;23642;42.658;23.350;2023-03-22T11:19:30;48840.56;;;-146.31;85.31
2036;BME280;23642;42.658;23.350;2023-03-22T11:22:05;48910.66;;;-146.31;85.49
2036;BME280;23642;42.658;23.350;2023-03-22T11:24:33;48904.47;;;-146.31;84.73
2036;BME280;23642;42.658;23.350;2023-03-22T11:27:03;48888.00;;;-146.31;86.38
2036;BME280;23642;42.658;23.350;2023-03-22T11:29:39;48865.31;;;-146.31;86.27
2036;BME280;23642;42.658;23.350;2023-03-22T11:32:29;48850.88;;;-146.31;87.21
2036;BME280;23642;42.658;23.350;2023-03-22T11:35:03;48826.16;;;-146.31;87.36
2036;BME280;23642;42.658;23.350;2023-03-22T11:37:31;48871.50;;;-146.31;86.89
2036;BME280;23642;42.658;23.350;2023-03-22T11:39:59;48902.41;;;-146.31;86.60
2036;BME280;23642;42.658;23.350;2023-03-22T11:42:33;48844.69;;;-146.31;86.47
2036;BME280;23642;42.658;23.350;2023-03-22T11:45:00;48873.56;;;-146.31;86.22
2036;BME280;23642;42.658;23.350;2023-03-22T11:47:48;48863.25;;;-146.31;86.27
2036;BME280;23642;42.658;23.350;2023-03-22T11:50:25;48869.44;;;-146.31;86.88
2036;BME280;23642;42.658;23.350;2023-03-22T11:52:53;48852.94;;;-146.31;86.61
2036;BME280;23642;42.658;23.350;2023-03-22T11:55:48;48896.25;;;-146.31;86.34
2036;BME280;23642;42.658;23.350;2023-03-22T11:58:27;48898.28;;;-146.31;87.09
2036;BME280;23642;42.658;23.350;2023-03-22T12:00:58;48890.06;;;-146.31;87.68
2036;BME280;23642;42.658;23.350;2023-03-22T12:03:33;48807.59;;;-146.31;89.09
2036;BME280;23642;42.658;23.350;2023-03-22T12:06:18;48834.41;;;-146.31;87.74
2036;BME280;23642;42.658;23.350;2023-03-22T12:08:50;48836.47;;;-146.31;88.78
2036;BME280;23642;42.658;23.350;2023-03-22T12:11:25;48830.28;;;-146.31;88.87
2036;BME280;23642;42.658;23.350;2023-03-22T12:13:56;48762.25;;;-146.31;89.60
2036;BME280;23642;42.658;23.350;2023-03-22T12:16:28;48756.06;;;-146.31;89.43
2036;BME280;23642;42.658;23.350;2023-03-22T12:19:05;48780.78;;;-146.31;89.34
2036;BME280;23642;42.658;23.350;2023-03-22T12:21:35;48739.56;;;-146.31;90.49
2036;BME280;23642;42.658;23.350;2023-03-22T12:24:05;48764.31;;;-146.31;89.12
2036;BME280;23642;42.658;23.350;2023-03-22T12:26:38;48863.25;;;-146.31;88.01
2036;BME280;23642;42.658;23.350;2023-03-22T12:29:07;48867.38;;;-146.31;86.13
2036;BME280;23642;42.658;23.350;2023-03-22T12:31:46;48914.78;;;-146.31;85.02
2036;BME280;23642;42.658;23.350;2023-03-22T12:34:22;48982.81;;;-146.31;84.07
2036;BME280;23642;42.658;23.350;2023-03-22T12:36:54;49038.47;;;-146.31;83.64
2036;BME280;23642;42.658;23.350;2023-03-22T12:39:24;49069.41;;;-146.31;82.03
2036;BME280;23642;42.658;23.350;2023-03-22T12:41:56;49147.75;;;-146.31;81.31
2036;BME280;23642;42.658;23.350;2023-03-22T12:44:32;49298.25;;;-146.31;79.45
2036;BME280;23642;42.658;23.350;2023-03-22T12:47:02;49310.63;;;-146.31;79.27
2036;BME280;23642;42.658;23.350;2023-03-22T12:49:36;49329.16;;;-146.31;77.60
2036;BME280;23642;42.658;23.350;2023-03-22T12:52:11;49417.81;;;-146.31;76.20
2036;BME280;23642;42.658;23.350;2023-03-22T12:54:41;49636.38;;;-146.31;74.67